Reno, NV (89501)

8:12 PM PDT on August 02, 2015 (GMT -0700)
UNR Campus, LMR Roof | | Change Station
CLOSE
Current Station
Personal Weather Station
Location: Reno, NV
Elevation: 4570 ft
Nearby Weather Stations

Elev 4570 ft 39.54 °N, 119.81 °W | Updated 37 seconds ago

Mostly Cloudy
Mostly Cloudy
75.3 °F
Feels Like 78 °F
N
2.7
Wind Variable Wind from WNW
Gusts 0.0 mph

Today
High -- | Low -- °F
--% Chance of Precip.
Yesterday
High -- | Low -- °F
Precip. -- in
5:59 AM 8:10 PM
Waning Gibbous, 90% visible
Pressure 29.86 in
Visibility 10.0 miles
Clouds Few 9000 ft
Few 11000 ft
Scattered Clouds 16000 ft
Mostly Cloudy 23000 ft
Heat Index 78 °F
Dew Point 53 °F
Humidity 45%
Rainfall 0.00 in
Snow Depth Not available.
UV 0 out of 12
Pollen 5.10 out of 12
Air Quality Not available.
Flu Activity Not available.
METAR KRNO 030255Z 33007KT 10SM FEW090 FEW110 SCT160 BKN230 26/11 A3003 RMK AO2 SLP112 T02610106 55004

More Conditions Fewer Conditions

Pressure 29.86 in
Visibility 10.0 miles
Clouds Few 9000 ft
Few 11000 ft
Scattered Clouds 16000 ft
Mostly Cloudy 23000 ft
Heat Index 78 °F
Dew Point 53 °F
Humidity 45%
Rainfall 0.00 in
Snow Depth Not available.
UV 0 out of 12
Pollen 5.10 out of 12
Air Quality Not available.
Flu Activity Not available.
METAR KRNO 030255Z 33007KT 10SM FEW090 FEW110 SCT160 BKN230 26/11 A3003 RMK AO2 SLP112 T02610106 55004

More Conditions Fewer Conditions

10-Day Weather Forecast

×

Almanac

Astronomy

Aug. 02, 2015 Rise Set
Actual Time
Civil Twilight
Nautical Twilight
Astronomical Twilight
Moon
Length of Visible Light
Length of Day
Tomorrow will be .
, % of the Moon is Illuminated

Today's Extremes

State Highs State Lows

Community

WunderPhotos

Upload Photos

1,843,559 photos uploaded!

WunderBlogs® & News

Nearby

Air Quality

  Air Quality AQ Index Pollutant
Not available.

Snow Depth

Station Depth Elevation

Earthquake Activity

City Distance Mag. Time & Date
Minimum magnitude displayed is 2.5.

Coastal Water Temperatures

Place Temperature

Stations

Nearby Weather Stations

Station Location Temp. Windchill Dew Point Humidity Wind Precip. Elev Updated Type